Data for 07/02/2009

Time Sea-Level Adjusted Pressure Absolute Pressure Temperature Relative Humidity Dew Point   
(mb) (inHg) (mb) (inHg) (C) (F) (%) (C) (F)
00:05 1020 30.12 850 25.1 17 62.6 62 9.9 49.7
00:10 1020 30.12 850 25.1 16.9 62.4 63 9.8 49.6
00:15 1020 30.12 850 25.1 16.8 62.3 63 9.8 49.6
00:20 1020 30.12 850 25.1 16.8 62.2 63 9.8 49.7
00:25 1020 30.12 850 25.1 16.7 62 63 9.8 49.6
00:30 1020 30.12 850 25.1 16.6 61.8 64 9.8 49.7
00:35 1020 30.12 850 25.1 16.5 61.6 64 9.8 49.6
00:40 1020 30.12 850 25.1 16.4 61.5 65 9.8 49.6
00:45 1020 30.12 850 25.1 16.3 61.3 65 9.7 49.5
00:50 1020 30.12 849 25.07 16.3 61.3 65 9.7 49.5
00:55 1020 30.12 849 25.07 16.3 61.3 64 9.6 49.3
01:00 1020 30.12 849 25.07 16.2 61.2 65 9.6 49.4
01:05 1020 30.12 849 25.07 16.1 61 65 9.6 49.3
01:10 1020 30.12 850 25.1 16.1 60.9 65 9.6 49.2
01:15 1021 30.15 850 25.1 16.1 60.9 64 9.4 48.9
01:20 1021 30.15 850 25.1 16.2 61.1 64 9.4 49
01:25 1021 30.15 850 25.1 16.2 61.1 64 9.4 49
01:30 1021 30.15 850 25.1 16.2 61.1 64 9.4 49
01:35 1021 30.15 850 25.1 16.1 61 64 9.3 48.7
01:40 1021 30.15 850 25.1 16.1 61 63 9.3 48.7
01:45 1021 30.15 850 25.1 16.2 61.1 63 9.3 48.7
01:50 1021 30.15 850 25.1 16.2 61.1 63 9.1 48.4
01:55 1021 30.15 850 25.1 16.2 61.2 63 9.2 48.5
02:00 1021 30.15 850 25.1 16.2 61.2 63 9.1 48.5
02:05 1021 30.15 850 25.1 16.2 61.1 62 9.1 48.3
02:10 1021 30.15 850 25.1 16.2 61.1 62 9 48.2
02:15 1021 30.15 850 25.1 16.2 61.2 62 9 48.3
02:20 1021 30.15 850 25.1 16.1 61 63 9.1 48.3
02:25 1021 30.15 850 25.1 16.2 61.1 63 9.2 48.5
02:30 1021 30.15 850 25.1 16 60.9 63 9 48.2
02:35 1021 30.15 850 25.1 16 60.9 63 9 48.2
02:40 1021 30.15 850 25.1 15.9 60.7 63 9 48.2
02:45 1021 30.15 850 25.1 15.9 60.6 64 9.1 48.4
02:50 1021 30.15 850 25.1 15.9 60.7 63 9 48.3
02:55 1021 30.15 851 25.13 16 60.8 63 9 48.2
03:00 1021 30.15 851 25.13 16 60.7 64 9.2 48.5
03:05 1021 30.15 851 25.13 16 60.8 63 9 48.1
03:10 1022 30.18 851 25.13 16 60.8 63 9 48.1
03:15 1022 30.18 851 25.13 15.9 60.6 63 8.9 48.1
03:20 1021 30.15 851 25.13 15.8 60.4 63 8.8 47.8
03:25 1021 30.15 851 25.13 15.8 60.4 63 8.8 47.9
03:30 1021 30.15 851 25.13 15.7 60.3 63 8.8 47.8
03:35 1021 30.15 850 25.1 15.7 60.2 63 8.8 47.8
03:40 1021 30.15 850 25.1 15.6 60.1 63 8.8 47.8
03:45 1021 30.15 850 25.1 15.6 60.1 63 8.7 47.7
03:50 1021 30.15 850 25.1 15.7 60.3 62 8.6 47.5
03:55 1021 30.15 850 25.1 15.7 60.3 63 8.7 47.7
04:00 1020 30.12 850 25.1 15.8 60.5 62 8.7 47.6
04:05 1020 30.12 850 25.1 15.9 60.6 63 9 48.2
04:10 1020 30.12 850 25.1 15.8 60.5 64 9 48.2
04:15 1020 30.12 850 25.1 15.8 60.5 64 9 48.2
04:20 1020 30.12 850 25.1 15.6 60.1 65 9.1 48.4
04:25 1020 30.12 850 25.1 15.5 59.9 66 9.2 48.5
04:30 1020 30.12 850 25.1 15.3 59.6 66 9.1 48.4
04:35 1021 30.15 850 25.1 15.1 59.1 68 9.2 48.5
04:40 1021 30.15 850 25.1 15 59 67 9 48.2
04:45 1021 30.15 850 25.1 15.2 59.3 67 9.1 48.3
04:50 1021 30.15 850 25.1 15.2 59.3 68 9.4 49
04:55 1021 30.15 850 25.1 15.1 59.1 68 9.3 48.7
05:00 1021 30.15 850 25.1 15.1 59.1 68 9.3 48.8
05:05 1021 30.15 850 25.1 15.2 59.4 65 8.7 47.6
05:10 1021 30.15 850 25.1 15.3 59.5 64 8.7 47.6
05:15 1021 30.15 850 25.1 15.2 59.3 65 8.7 47.7
05:20 1021 30.15 850 25.1 15 58.9 66 8.7 47.7
05:25 1021 30.15 850 25.1 14.9 58.8 66 8.7 47.7
05:30 1021 30.15 850 25.1 14.9 58.7 67 8.7 47.7
05:35 1021 30.15 850 25.1 14.7 58.4 67 8.8 47.8
05:40 1021 30.15 850 25.1 14.5 58.2 68 8.7 47.7
05:45 1021 30.15 850 25.1 14.4 57.9 69 8.8 47.9
05:50 1021 30.15 851 25.13 14.3 57.7 69 8.6 47.6
05:55 1021 30.15 851 25.13 14.4 57.9 68 8.6 47.5
06:00 1021 30.15 851 25.13 14.4 58 68 8.7 47.6
06:05 1021 30.15 851 25.13 14.4 58 68 8.7 47.7
06:10 1021 30.15 851 25.13 14.5 58 67 8.6 47.4
06:15 1021 30.15 851 25.13 14.7 58.4 67 8.6 47.5
06:20 1022 30.18 851 25.13 14.8 58.6 66 8.6 47.4
06:25 1022 30.18 851 25.13 14.9 58.8 66 8.6 47.4
06:30 1022 30.18 851 25.13 15 59 65 8.6 47.4
06:35 1022 30.18 851 25.13 15.1 59.2 65 8.6 47.4
06:40 1022 30.18 851 25.13 15.2 59.3 65 8.6 47.5
06:45 1022 30.18 851 25.13 15.3 59.6 63 8.5 47.2
06:50 1021 30.15 851 25.13 15.4 59.8 63 8.6 47.4
06:55 1021 30.15 851 25.13 15.5 59.8 63 8.6 47.5
07:00 1021 30.15 851 25.13 15.5 59.8 63 8.6 47.4
07:05 1021 30.15 851 25.13 15.4 59.7 64 8.7 47.7
07:10 1021 30.15 851 25.13 15.4 59.7 64 8.8 47.8
07:15 1021 30.15 851 25.13 15.3 59.6 65 8.8 47.9
07:20 1021 30.15 851 25.13 15.5 59.8 64 8.8 47.9
07:25 1022 30.18 851 25.13 15.8 60.5 65 9.3 48.8
07:30 1022 30.18 851 25.13 15.7 60.3 66 9.5 49.1
07:35 1022 30.18 851 25.13 15.8 60.4 67 9.7 49.5
07:40 1022 30.18 851 25.13 16.1 60.9 66 9.8 49.6
07:45 1022 30.18 851 25.13 16.1 60.9 67 10 50
07:50 1022 30.18 851 25.13 15.8 60.5 68 10.1 50.1
07:55 1022 30.18 851 25.13 15.6 60 70 10.1 50.2
08:00 1022 30.18 851 25.13 16 60.7 66 9.8 49.6
08:05 1022 30.18 851 25.13 15.9 60.6 67 9.9 49.9
08:10 1022 30.18 851 25.13 16.5 61.6 63 9.5 49.1
08:15 1022 30.18 851 25.13 16.8 62.2 62 9.6 49.2
08:20 1022 30.18 851 25.13 17 62.7 62 9.7 49.5
08:25 1022 30.18 851 25.13 17.2 63 60 9.5 49.2
08:30 1021 30.15 851 25.13 17.3 63.1 59 9.3 48.8
08:35 1021 30.15 851 25.13 17.5 63.5 59 9.4 48.9
08:40 1021 30.15 851 25.13 17.3 63.1 58 8.9 48
08:45 1022 30.18 851 25.13 17.6 63.6 59 9.6 49.2
08:50 1022 30.18 851 25.13 17.8 64 61 10.3 50.6
08:55 1022 30.18 851 25.13 17.8 64 63 10.8 51.4
09:00 1022 30.18 851 25.13 17.6 63.7 61 10.1 50.3
09:05 1022 30.18 851 25.13 17.5 63.5 63 10.4 50.8
09:10 1022 30.18 851 25.13 17.8 64 62 10.5 50.9
09:15 1022 30.18 851 25.13 17.7 63.9 60 10 49.9
09:20 1022 30.18 851 25.13 18.2 64.8 61 10.7 51.2
09:25 1022 30.18 851 25.13 18 64.4 62 10.8 51.4
09:30 1022 30.18 851 25.13 18.4 65.2 60 10.5 50.9
09:35 1022 30.18 851 25.13 18.5 65.4 62 11.2 52.2
09:40 1022 30.18 851 25.13 18.8 65.9 58 10.4 50.7
09:45 1022 30.18 851 25.13 18.9 66.1 59 10.9 51.6
09:50 1021 30.15 851 25.13 18.3 64.9 61 10.7 51.2
09:55 1021 30.15 851 25.13 18.4 65.1 59 10.4 50.7
10:00 1021 30.15 851 25.13 19 66.2 59 10.9 51.7
10:05 1021 30.15 851 25.13 19.1 66.4 56 10.3 50.5
10:10 1021 30.15 851 25.13 19.4 67 57 10.7 51.2
10:15 1021 30.15 850 25.1 19.6 67.3 55 10.4 50.8
10:20 1021 30.15 850 25.1 19.9 67.8 53 10.2 50.3
10:25 1021 30.15 850 25.1 20.4 68.7 52 10.4 50.6
10:30 1021 30.15 850 25.1 20.2 68.4 56 11.2 52.2
10:35 1021 30.15 850 25.1 19.1 66.4 57 10.5 50.9
10:40 1021 30.15 850 25.1 19.6 67.3 54 10.2 50.3
10:45 1021 30.15 850 25.1 20.1 68.3 55 11 51.9
10:50 1021 30.15 850 25.1 19.8 67.6 56 10.8 51.4
10:55 1021 30.15 850 25.1 20 68 55 10.7 51.3
11:00 1021 30.15 850 25.1 20.5 68.8 53 10.6 51
11:05 1021 30.15 850 25.1 20.7 69.3 51 10.3 50.5
11:10 1021 30.15 850 25.1 21.3 70.4 52 11.2 52.1
11:15 1021 30.15 850 25.1 21.1 70.1 52 11 51.9
11:20 1021 30.15 850 25.1 20.9 69.7 51 10.6 51
11:25 1021 30.15 850 25.1 20.9 69.5 52 10.8 51.5
11:30 1021 30.15 850 25.1 21.4 70.5 50 10.7 51.2
11:35 1021 30.15 850 25.1 21.5 70.6 49 10.4 50.7
11:40 1021 30.15 850 25.1 21.8 71.2 50 11.1 52
11:45 1021 30.15 850 25.1 21.8 71.3 49 10.8 51.5
11:50 1021 30.15 850 25.1 21.4 70.5 52 11.4 52.4
11:55 1021 30.15 850 25.1 21.4 70.5 48 10.2 50.4
12:00 1021 30.15 850 25.1 22 71.7 49 11 51.8
12:05 1021 30.15 850 25.1 21.6 70.9 47 9.8 49.7
12:10 1021 30.15 850 25.1 22.8 73.1 45 10.4 50.7
12:15 1021 30.15 850 25.1 23.2 73.7 43 10.2 50.3
12:20 1021 30.15 850 25.1 23.5 74.3 43 10.6 51
12:25 1021 30.15 850 25.1 23 73.3 49 11.9 53.4
12:30 1020 30.12 850 25.1 22.6 72.6 45 10.2 50.4
12:35 1020 30.12 850 25.1 23.1 73.6 45 10.7 51.3
12:40 1020 30.12 850 25.1 22.9 73.1 46 10.8 51.4
12:45 1020 30.12 849 25.07 22.8 73 44 10.2 50.3
12:50 1020 30.12 849 25.07 23.4 74.2 39 9 48.1
12:55 1020 30.12 849 25.07 23.5 74.4 42 9.9 49.9
13:00 1020 30.12 849 25.07 23 73.4 42 9.7 49.5
13:05 1020 30.12 849 25.07 23.1 73.6 41 9.4 48.9
13:10 1020 30.12 849 25.07 22.9 73.2 43 9.8 49.6
13:15 1020 30.12 849 25.07 23.2 73.8 42 9.8 49.7
13:20 1020 30.12 849 25.07 23.4 74.1 41 9.7 49.5
13:25 1020 30.12 849 25.07 23.5 74.3 41 9.6 49.3
13:30 1020 30.12 849 25.07 23.4 74.1 40 9.2 48.5
13:35 1020 30.12 849 25.07 23.8 74.9 39 9.2 48.6
13:40 1020 30.12 849 25.07 23.6 74.4 39 9.1 48.3
13:45 1020 30.12 849 25.07 23.6 74.4 37 8.4 47.1
13:50 1020 30.12 849 25.07 23.6 74.5 38 8.8 47.9
13:55 1019 30.09 849 25.07 24 75.2 39 9.2 48.6
14:00 1019 30.09 849 25.07 24.1 75.3 39 9.4 49
14:05 1019 30.09 849 25.07 24.4 75.9 37 9.1 48.4
14:10 1019 30.09 849 25.07 24.5 76.1 37 9 48.1
14:15 1019 30.09 849 25.07 24.4 76 37 9.1 48.3
14:20 1019 30.09 848 25.04 24.2 75.5 38 9.2 48.5
14:25 1019 30.09 848 25.04 24.4 75.9 38 9.3 48.7
14:30 1019 30.09 848 25.04 24.7 76.5 37 9.1 48.4
14:35 1019 30.09 848 25.04 25.2 77.3 37 9.6 49.3
14:40 1019 30.09 848 25.04 25.5 78 34 9 48.1
14:45 1019 30.09 848 25.04 25.1 77.2 37 9.4 49
14:50 1019 30.09 848 25.04 25 77 38 9.9 49.8
14:55 1019 30.09 848 25.04 25.3 77.5 37 9.8 49.7
15:00 1019 30.09 848 25.04 25.5 77.8 35 9.3 48.7
15:05 1019 30.09 848 25.04 25.2 77.4 34 8.6 47.4
15:10 1019 30.09 848 25.04 25.7 78.2 34 8.8 47.9
15:15 1019 30.09 848 25.04 26 78.7 34 9 48.2
15:20 1019 30.09 848 25.04 26.1 78.9 34 9.2 48.5
15:25 1019 30.09 848 25.04 25.9 78.5 35 9.3 48.8
15:30 1019 30.09 848 25.04 26.2 79.1 34 9.3 48.7
15:35 1019 30.09 848 25.04 26 78.9 35 9.8 49.6
15:40 1019 30.09 848 25.04 25.9 78.7 34 8.9 48
15:45 1019 30.09 848 25.04 26 78.7 33 8.8 47.8
15:50 1019 30.09 848 25.04 26.2 79.2 33 8.9 47.9
15:55 1019 30.09 848 25.04 26.6 79.8 33 9.5 49
16:00 1019 30.09 848 25.04 26.8 80.3 32 9.1 48.4
16:05 1019 30.09 848 25.04 26.8 80.2 33 9.3 48.8
16:10 1019 30.09 848 25.04 27.5 81.4 31 9.4 48.8
16:15 1019 30.09 848 25.04 27.3 81.2 32 9.5 49.2
16:20 1019 30.09 848 25.04 26.9 80.4 33 9.7 49.5
16:25 1019 30.09 848 25.04 26.4 79.5 35 9.8 49.7
16:30 1019 30.09 848 25.04 26.1 79.1 35 9.8 49.7
16:35 1019 30.09 848 25.04 25.8 78.5 35 9.4 48.9
16:40 1019 30.09 848 25.04 25.8 78.4 33 8.5 47.3
16:45 1019 30.09 848 25.04 25.1 77.3 34 8.4 47.1
16:50 1019 30.09 848 25.04 25.6 78 31 7.6 45.7
16:55 1019 30.09 848 25.04 25.6 78.1 30 7.2 45
17:00 1019 30.09 848 25.04 23.7 74.7 35 7.6 45.7
17:05 1019 30.09 848 25.04 22.4 72.3 38 7.5 45.5
17:10 1019 30.09 848 25.04 21.7 71.1 39 7.4 45.2
17:15 1019 30.09 848 25.04 21.3 70.3 44 8.7 47.6
17:20 1019 30.09 848 25.04 21.3 70.3 47 9.6 49.3
17:25 1019 30.09 848 25.04 22 71.6 43 8.9 48.1
17:30 1019 30.09 848 25.04 23 73.4 36 7.5 45.5
17:35 1019 30.09 848 25.04 23.5 74.3 35 7.3 45.2
17:40 1019 30.09 848 25.04 23.5 74.2 32 6.2 43.2
17:45 1019 30.09 849 25.07 22.6 72.7 38 7.8 46.1
17:50 1020 30.12 849 25.07 21.6 70.8 38 6.8 44.3
17:55 1020 30.12 849 25.07 21.5 70.7 39 7.1 44.8
18:00 1020 30.12 849 25.07 21.1 69.9 41 7.4 45.3
18:05 1019 30.09 849 25.07 21.1 69.9 41 7.4 45.4
18:10 1020 30.12 849 25.07 21 69.7 40 6.8 44.3
18:15 1020 30.12 849 25.07 21.2 70.1 39 6.7 44
18:20 1019 30.09 849 25.07 21.1 70 41 7.4 45.3
18:25 1019 30.09 849 25.07 20.3 68.5 43 7.6 45.6
18:30 1019 30.09 849 25.07 19.8 67.6 44 7.3 45.2
18:35 1019 30.09 849 25.07 19.8 67.6 42 6.8 44.2
18:40 1019 30.09 849 25.07 19.7 67.5 43 7 44.6
18:45 1019 30.09 849 25.07 19.7 67.4 43 6.8 44.3
18:50 1019 30.09 849 25.07 19.7 67.4 43 6.9 44.5
18:55 1020 30.12 849 25.07 19.8 67.6 45 7.7 45.9
19:00 1020 30.12 849 25.07 19.9 67.7 46 8 46.4
19:05 1020 30.12 849 25.07 20 67.9 46 8.3 46.9
19:10 1020 30.12 849 25.07 20 68.1 49 9 48.2
19:15 1020 30.12 849 25.07 20 68 50 9.5 49.1
19:20 1020 30.12 849 25.07 19.9 67.8 48 8.7 47.6
19:25 1020 30.12 849 25.07 19.8 67.6 47 8.3 47
19:30 1020 30.12 849 25.07 19.6 67.3 47 8.1 46.5
19:35 1020 30.12 849 25.07 19.5 67.1 48 8.2 46.8
19:40 1020 30.12 849 25.07 19.3 66.8 48 8.1 46.5
19:45 1020 30.12 849 25.07 19.3 66.7 48 8.2 46.8
19:50 1019 30.09 849 25.07 19.1 66.4 49 8.2 46.7
19:55 1019 30.09 849 25.07 19 66.3 49 8.3 46.9
20:00 1019 30.09 849 25.07 19 66.2 49 8.3 46.9
20:05 1019 30.09 849 25.07 18.9 66.1 50 8.4 47.2
20:10 1019 30.09 849 25.07 18.9 66 50 8.4 47
20:15 1020 30.12 849 25.07 18.8 65.9 51 8.6 47.4
20:20 1020 30.12 849 25.07 18.8 65.8 51 8.7 47.6
20:25 1020 30.12 849 25.07 18.8 65.8 51 8.6 47.6
20:30 1020 30.12 849 25.07 18.9 65.9 51 8.6 47.4
20:35 1020 30.12 849 25.07 19 66.1 50 8.3 47
20:40 1020 30.12 849 25.07 19.1 66.4 48 8 46.5
20:45 1020 30.12 849 25.07 19.2 66.5 48 8.1 46.6
20:50 1020 30.12 849 25.07 19.1 66.3 48 8 46.4
20:55 1020 30.12 849 25.07 19.1 66.4 47 7.7 45.9
21:00 1020 30.12 849 25.07 19.2 66.6 48 8.1 46.6
21:05 1020 30.12 849 25.07 19.1 66.3 49 8.3 46.9
21:10 1020 30.12 849 25.07 19.1 66.3 47 7.6 45.7
21:15 1020 30.12 849 25.07 19.2 66.5 48 8.1 46.5
21:20 1020 30.12 849 25.07 18.9 66 52 9 48.1
21:25 1020 30.12 849 25.07 18.2 64.8 56 9.3 48.7
21:30 1020 30.12 849 25.07 17.8 64 57 9.1 48.4
21:35 1020 30.12 849 25.07 17.5 63.6 58 9.2 48.6
21:40 1020 30.12 849 25.07 17.4 63.2 59 9.3 48.7
21:45 1020 30.12 849 25.07 17.2 62.9 60 9.3 48.8
21:50 1020 30.12 849 25.07 17 62.6 60 9.2 48.6
21:55 1020 30.12 850 25.1 17 62.5 60 9.3 48.7
22:00 1020 30.12 850 25.1 16.9 62.4 61 9.4 49
22:05 1020 30.12 850 25.1 16.8 62.2 62 9.4 49
22:10 1020 30.12 850 25.1 16.7 62 62 9.4 48.9
22:15 1020 30.12 850 25.1 16.7 62 62 9.4 49
22:20 1021 30.15 850 25.1 16.6 62 62 9.5 49
22:25 1020 30.12 850 25.1 16.6 61.9 62 9.5 49.1
22:30 1021 30.15 850 25.1 16.6 61.8 63 9.6 49.2
22:35 1021 30.15 850 25.1 16.5 61.8 64 9.8 49.6
22:40 1021 30.15 850 25.1 16.4 61.6 65 9.9 49.8
22:45 1021 30.15 850 25.1 16.3 61.4 66 10 50
22:50 1021 30.15 850 25.1 16.2 61.2 67 10.1 50.2
22:55 1021 30.15 850 25.1 16.1 61.1 67 10.2 50.3
23:00 1021 30.15 850 25.1 16.1 60.9 68 10.2 50.4
23:05 1020 30.12 850 25.1 16 60.8 68 10.2 50.4
23:10 1020 30.12 850 25.1 16 60.7 69 10.2 50.4
23:15 1020 30.12 850 25.1 15.8 60.4 70 10.3 50.6
23:20 1020 30.12 850 25.1 15.7 60.3 69 10.2 50.4
23:25 1020 30.12 850 25.1 15.7 60.3 70 10.3 50.6
23:30 1020 30.12 850 25.1 15.7 60.2 70 10.2 50.3
23:35 1020 30.12 850 25.1 15.6 60.2 70 10.2 50.4
23:40 1020 30.12 850 25.1 15.6 60 70 10.2 50.4
23:45 1020 30.12 850 25.1 15.5 59.9 70 10.2 50.3
23:50 1020 30.12 850 25.1 15.5 59.8 70 10.1 50.2
23:55 1021 30.15 850 25.1 15.3 59.6 71 10.2 50.3
24:00 1021 30.15 850 25.1 15.3 59.6 71 10.1 50.1